Tiempo atmosférico en la estación meteorológica de Chipiona, Cádiz (10 m.)



Fecha
DESCASC
Temp. máxima en grados centígrados (hora)
DESCASC
Temp. mínima en grados centígrados (hora)
DESCASC
Temp. media en grados centígrados
DESCASC
Racha de viento máxima en m/sg (hora)
DESCASC
Velocidad máxima media en intervalos de 10 minutos(hora)
DESCASC
Precipitaciones diarias en mm
DESCASC
Precipitaciones de 00:00 a 06:00 en mm
DESCASC
Precipitaciones de 06:00 a 12:00 en mm
DESCASC
Precipitaciones de 12:00 a 18:00 en mm
DESCASC
Precipitaciones de 18:00 a 24:00 en mm
DESCASC
31-03-2020 18.8 (14:00) 12 (00:00) 15.4 11.67 (05:20) 6.94 (16:20) 4.6 2.6 2 0 0
30-03-2020 18.1 (13:00) 10.3 (05:10) 14.2 8.61 (13:20) 5.28 (12:50) 16.6 0 0 0 16.6
29-03-2020 20.1 (15:30) 10.6 (00:00) 15.4 7.22 (15:10) 4.17 (14:40) 0 0 0 0 0
28-03-2020 19.5 (14:40) 9.4 (00:00) 14.4 7.22 (13:10) 4.72 (14:10) 0 0 0 0 0
27-03-2020 16.2 (15:50) 11.1 (00:00) 13.7 8.89 (16:40) 5.56 (01:00) 0 0 0 0 0
26-03-2020 18.7 (16:50) 10.5 (00:00) 14.6 10.56 (15:30) 6.67 (17:30) 0 0 0 0 0
25-03-2020 19.8 (16:40) 11.9 (00:00) 15.8 7.78 (10:40) 5 (09:40) 0 0 0 0 0
24-03-2020 17.2 (18:30) 11.3 (00:00) 14.3 6.94 (07:00) 4.17 (07:00) 1.2 0.8 0.2 0.2 0
23-03-2020 20.2 (16:10) 8 (00:00) 14.1 10 (18:00) 6.11 (17:50) 5.2 0 0 0 5.2
22-03-2020 16 (15:30) 7.8 (07:50) 11.9 6.11 (16:20) 3.89 (14:40) 4 4 0 0 0
21-03-2020 16.1 (15:20) 11.3 (00:00) 13.7 14.17 (14:00) 8.33 (14:00) 8.4 0.6 7.4 0.2 0.2
20-03-2020 20.1 (14:50) 12 (00:00) 16.1 13.89 (15:30) 8.61 (14:40) 7 0 0 0.2 6.8
19-03-2020 19.6 (13:20) 14.1 (00:00) 16.9 13.89 (01:20) 7.78 (02:40) 0 0 0 0 0
18-03-2020 22 (14:50) 12.7 (00:00) 17.3 16.94 (14:00) 11.67 (14:20) 4.8 4.8 0 0 0
17-03-2020 17.4 (16:10) 8.1 (00:00) 12.8 13.33 (11:50) 8.33 (12:00) 37.6 9.8 20.4 1 6.4
16-03-2020 18 (16:30) 9.8 (00:00) 13.9 12.22 (01:10) 8.06 (15:30) 0.6 0 0 0 0.6
15-03-2020 21.6 (13:30) 11.5 (00:00) 16.6 7.5 (15:30) 5.28 (14:10) 0 0 0 0 0
14-03-2020 20.3 (12:40) 13 (00:00) 16.6 6.11 (13:30) 4.17 (13:30) 0 0 0 0 0
13-03-2020 19.4 (14:30) 12.8 (23:10) 16.1 7.22 (15:30) 3.61 (13:20) 0 0 0 0 0
12-03-2020 20.9 (13:50) 13 (00:00) 16.9 7.22 (16:00) 4.17 (16:00) 0 0 0 0 0
11-03-2020 28.4 (14:00) 11.5 (00:00) 19.9 9.44 (10:50) 5.83 (20:50) 0 0 0 0 0
10-03-2020 26.5 (14:30) 12.5 (00:00) 19.5 10 (10:50) 6.39 (11:20) 0 0 0 0 0
09-03-2020 19.5 (17:00) 9.9 (00:00) 14.7 9.17 (16:20) 6.11 (16:00) 0 0 0 0 0
08-03-2020 22.3 (14:30) 8.1 (00:00) 15.2 6.94 (09:40) 4.72 (15:50) 0 0 0 0 0
07-03-2020 22.6 (16:20) 8.8 (00:00) 15.7 10 (11:10) 5 (14:00) 0 0 0 0 0
06-03-2020 18.3 (15:30) 12.6 (00:00) 15.4 11.39 (01:20) 7.78 (15:50) 0 0 0 0 0
05-03-2020 18.3 (17:30) 13.2 (00:00) 15.7 10.56 (22:30) 7.22 (23:10) 0 0 0 0 0
04-03-2020 19.3 (15:10) 14.2 (00:00) 16.7 8.33 (18:10) 5.83 (16:30) 0 0 0 0 0
03-03-2020 18.8 (15:30) 10 (00:00) 14.4 9.72 (16:00) 6.11 (15:40) 0 0 0 0 0
02-03-2020 19.6 (16:30) 15.1 (00:00) 17.4 11.39 (13:50) 7.78 (13:10) 0 0 0 0 0

Gráficas

Temp. máximas Temp. mínimas Temp. medias Precipitaciones Rachas de viento máximas Velocidades máximas media en intervalos de 10 minutos

Datos horarios

Fecha y hora oficial Temperatura (ºC) Velocidad del viento (km/h) Dirección del viento Racha (km/h) Dirección de racha Precipitación (mm) Presión (hPa) Tendencia (hPa) Humedad (%)
2020-03-31 23:00:00 14.2 17 Sudoeste 27 Sudoeste 0 -- -- 76
2020-03-31 22:00:00 14.3 13 Sudoeste 29 Sudoeste 0 -- -- 82
2020-03-31 21:00:00 15 16 Sudoeste 28 Sudoeste 0 -- -- 81
2020-03-31 20:00:00 15.8 19 Sudoeste 29 Oeste 0 -- -- 79
2020-03-31 19:00:00 16.2 21 Sudoeste 33 Sudoeste 0 -- -- 79
2020-03-31 18:00:00 17.1 22 Oeste 32 Oeste 0 -- -- 82
2020-03-31 17:00:00 17.5 20 Sudoeste 41 Sudoeste 0 -- -- 84
2020-03-31 16:00:00 18.6 24 Sudoeste 39 Sudoeste 0 -- -- 76
2020-03-31 15:00:00 18.4 18 Sudoeste 34 Sudoeste 0 -- -- 84
2020-03-31 14:00:00 18.8 22 Sur 38 Sur 0 -- -- 79
2020-03-31 13:00:00 18.4 21 Sur 39 Sudoeste 0 -- -- 80
2020-03-31 12:00:00 17.7 18 Sudoeste 32 Sudoeste 0 -- -- 82
2020-03-31 11:00:00 16.3 15 Sur 29 Sur 0.2 -- -- 86
2020-03-31 10:00:00 14.2 13 Sudoeste 26 Sudoeste 1.6 -- -- 92
2020-03-31 09:00:00 13.3 5 Sur 9 Sur 0 -- -- 98
2020-03-31 08:00:00 12.7 5 Sur 14 Sudoeste 0 -- -- 97
2020-03-31 07:00:00 12.7 6 Sur 14 Sur 0.2 -- -- 96
2020-03-31 06:00:00 12.8 11 Sudoeste 42 Sudoeste 1.8 -- -- 93
2020-03-31 05:00:00 15 18 Sur 35 Sur 0 -- -- 93
2020-03-31 04:00:00 14.4 18 Sur 34 Sur 0.2 -- -- 94
2020-03-31 03:00:00 13 10 Sudeste 30 Este 0 -- -- 99
2020-03-31 02:00:00 12.5 19 Este 28 Este 0.4 -- -- 98
2020-03-31 01:00:00 12.5 13 Este 23 Este 0.2 -- -- 99
2020-03-31 00:00:00 12 13 Este 21 Este 4.4 -- -- 99
2020-03-30 23:00:00 12.5 12 Este 18 Este 6 -- -- 97
2020-03-30 22:00:00 12.8 6 Este 10 Este 2.8 -- -- 96
2020-03-30 21:00:00 13 5 Nordeste 15 Este 2.8 -- -- 93
2020-03-30 20:00:00 14.6 5 Oeste 15 Oeste 0.4 -- -- 86
2020-03-30 19:00:00 15.8 6 Sur 17 Sur 0.2 -- -- 82
2020-03-30 18:00:00 16.4 8 Sur 22 Sudoeste 0 -- -- 77
2020-03-30 17:00:00 16.5 11 Sudoeste 21 Sur 0 -- -- 80
2020-03-30 16:00:00 17.4 14 Sur 27 Sudoeste 0 -- -- 77
2020-03-30 15:00:00 17.1 15 Sur 26 Sur 0 -- -- 76
2020-03-30 14:00:00 17.6 14 Sur 31 Sur 0 -- -- 72
2020-03-30 13:00:00 18.1 18 Sur 30 Sur 0 -- -- 72
2020-03-30 12:00:00 16.9 14 Sur 24 Sur 0 -- -- 77
2020-03-30 11:00:00 15.1 10 Sudeste 15 Sudeste 0 -- -- 92
2020-03-30 10:00:00 13.4 7 Sudeste 14 Este 0 -- -- 97
2020-03-30 09:00:00 11.8 7 Sudeste 14 Sudeste 0 -- -- 98
2020-03-30 08:00:00 11.4 8 Sudeste 13 Sudeste 0 -- -- 98
2020-03-30 07:00:00 10.8 5 Este 11 Este 0 -- -- 98
2020-03-30 06:00:00 10.6 6 Este 9 Este 0 -- -- 97
2020-03-30 05:00:00 10.4 4 Este 6 Sudeste 0 -- -- 95
2020-03-30 04:00:00 10.5 3 Este 4 Este 0 -- -- 94
2020-03-30 03:00:00 10.8 2 Sudeste 4 Sudeste 0 -- -- 93
2020-03-30 02:00:00 11.5 2 Este 5 Sudeste 0 -- -- 92
2020-03-30 01:00:00 12 4 Este 5 Este 0 -- -- 90
2020-03-30 00:00:00 12.9 3 Sudeste 6 Sudeste 0 -- -- 88
2020-03-29 23:00:00 13.8 3 Sudeste 6 Sur 0 -- -- 85
2020-03-29 22:00:00 14.9 4 Sur 12 Sur 0 -- -- 83
2020-03-29 21:00:00 15.9 6 Sur 14 Sur 0 -- -- 80
2020-03-29 20:00:00 17.1 10 Sur 18 Sur 0 -- -- 75
2020-03-29 19:00:00 17.3 10 Sudoeste 18 Sudoeste 0 -- -- 72
2020-03-29 18:00:00 18.3 10 Sudoeste 22 Sudoeste 0 -- -- 68
2020-03-29 17:00:00 19.5 14 Sudoeste 24 Sur 0 -- -- 62
2020-03-29 16:00:00 19.2 13 Sudoeste 26 Sur 0 -- -- 65
2020-03-29 15:00:00 19.7 14 Sur 25 Sur 0 -- -- 64
2020-03-29 14:00:00 19.7 8 Este 18 Sudeste 0 -- -- 58
2020-03-29 13:00:00 18.7 9 Sudeste 20 Este 0 -- -- 62
2020-03-29 12:00:00 17.5 10 Este 22 Nordeste 0 -- -- 62
2020-03-29 11:00:00 14.9 11 Este 19 Este 0 -- -- 75
2020-03-29 10:00:00 12.8 12 Este 17 Este 0 -- -- 83
2020-03-29 09:00:00 11.8 8 Nordeste 14 Este 0 -- -- 86
2020-03-29 08:00:00 11 5 Nordeste 14 Nordeste 0 -- -- 89
2020-03-29 07:00:00 11.1 8 Nordeste 13 Nordeste 0 -- -- 90
2020-03-29 06:00:00 10.9 5 Nordeste 13 Este 0 -- -- 89
2020-03-29 05:00:00 10.8 10 Este 14 Este 0 -- -- 90
2020-03-29 03:00:00 11.6 9 Este 15 Sudeste 0 -- -- 90
2020-03-29 01:00:00 11.1 4 Sudeste 12 Sudeste 0 -- -- 90
2020-03-29 00:00:00 12 10 Sudeste 13 Sudeste 0 -- -- 88
2020-03-28 23:00:00 12.6 3 Sudeste 8 Sudeste 0 -- -- 85
2020-03-28 22:00:00 13.4 4 Sudeste 8 Sudeste 0 -- -- 82
2020-03-28 21:00:00 14.2 0 Calma 4 Sudeste 0 -- -- 80
2020-03-28 20:00:00 15.5 3 Sudeste 13 Sudoeste 0 -- -- 72
2020-03-28 19:00:00 17.4 6 Sur 17 Sur 0 -- -- 64
2020-03-28 18:00:00 17.9 10 Sudoeste 18 Oeste 0 -- -- 62
2020-03-28 17:00:00 18.3 11 Sudoeste 21 Sur 0 -- -- 61
2020-03-28 16:00:00 18.8 12 Sudoeste 25 Sur 0 -- -- 57
2020-03-28 15:00:00 19.3 13 Sur 26 Sur 0 -- -- 56
2020-03-28 14:00:00 19.1 15 Sur 26 Sudoeste 0 -- -- 59
2020-03-28 13:00:00 18.3 11 Sur 24 Sur 0 -- -- 62
2020-03-28 12:00:00 18.2 12 Sudeste 23 Sudeste 0 -- -- 64
2020-03-28 11:00:00 17.4 11 Sudeste 21 Sudeste 0 -- -- 68
2020-03-28 10:00:00 15.3 13 Este 22 Este 0 -- -- 77
2020-03-28 09:00:00 12.1 9 Este 15 Este 0 -- -- 89
2020-03-28 08:00:00 9.8 10 Este 16 Este 0 -- -- 94
2020-03-28 07:00:00 9.5 6 Este 13 Este 0 -- -- 93
2020-03-28 06:00:00 9.5 8 Este 12 Este 0 -- -- 94
2020-03-28 05:00:00 9.8 8 Este 14 Este 0 -- -- 93
2020-03-28 04:00:00 10.2 6 Este 10 Este 0 -- -- 92
2020-03-28 03:00:00 10.7 8 Este 13 Este 0 -- -- 94
2020-03-28 02:00:00 10.8 6 Este 10 Este 0 -- -- 93
2020-03-28 01:00:00 10.7 4 Sudeste 7 Sudeste 0 -- -- 92
2020-03-28 00:00:00 11.1 6 Este 10 Este 0 -- -- 90
2020-03-27 23:00:00 11.1 6 Este 12 Este 0 -- -- 89
2020-03-27 22:00:00 12.1 3 Este 12 Oeste 0 -- -- 85
2020-03-27 21:00:00 13.9 7 Oeste 15 Oeste 0 -- -- 79
2020-03-27 20:00:00 14.2 9 Sudoeste 19 Sudoeste 0 -- -- 78
2020-03-27 19:00:00 15.5 12 Sudoeste 24 Sudoeste 0 -- -- 74
2020-03-27 18:00:00 16 13 Sudoeste 25 Sudoeste 0 -- -- 71
2020-03-27 17:00:00 15.4 14 Oeste 32 Sudoeste 0 -- -- 75
2020-03-27 16:00:00 15.7 15 Sudoeste 23 Sudoeste 0 -- -- 72
2020-03-27 15:00:00 15.8 13 Sudoeste 24 Oeste 0 -- -- 72
2020-03-27 14:00:00 15.3 13 Oeste 18 Oeste 0 -- -- 71
2020-03-27 13:00:00 14.8 6 Oeste 15 Noroeste 0 -- -- 74
2020-03-27 12:00:00 13.3 11 Noroeste 18 Noroeste 0 -- -- 78
2020-03-27 11:00:00 12.6 14 Oeste 23 Oeste 0 -- -- 80
2020-03-27 10:00:00 12.7 15 Oeste 23 Oeste 0 -- -- 81
2020-03-27 09:00:00 12.8 12 Noroeste 23 Oeste 0 -- -- 81
2020-03-27 08:00:00 11.7 15 Oeste 24 Oeste 0 -- -- 85
2020-03-27 07:00:00 11.9 17 Oeste 27 Oeste 0 -- -- 87
2020-03-27 06:00:00 12.3 14 Oeste 23 Oeste 0 -- -- 87
2020-03-27 05:00:00 12.7 15 Oeste 24 Oeste 0 -- -- 84
2020-03-27 04:00:00 13 15 Oeste 23 Noroeste 0 -- -- 86
2020-03-27 03:00:00 13.3 14 Oeste 24 Oeste 0 -- -- 86
2020-03-27 02:00:00 13.8 17 Oeste 30 Oeste 0 -- -- 86
2020-03-27 01:00:00 14.5 20 Oeste 30 Noroeste 0 -- -- 85
2020-03-27 00:00:00 15.2 20 Noroeste 32 Noroeste 0 -- -- 82
2020-03-26 23:00:00 15.9 18 Noroeste 30 Noroeste 0 -- -- 79
2020-03-26 22:00:00 16.4 13 Oeste 23 Oeste 0 -- -- 80
2020-03-26 21:00:00 16.3 15 Sudoeste 26 Sudoeste 0 -- -- 88
2020-03-26 20:00:00 16.3 14 Sudoeste 30 Sudoeste 0 -- -- 85
2020-03-26 19:00:00 17.4 20 Sudoeste 36 Sudoeste 0 -- -- 81
2020-03-26 18:00:00 18.2 21 Sudoeste 37 Sudoeste 0 -- -- 77
2020-03-26 17:00:00 18.5 21 Sudoeste 36 Sudoeste 0 -- -- 71
2020-03-26 16:00:00 18.5 21 Sudoeste 38 Sudoeste 0 -- -- 75
2020-03-26 15:00:00 18 24 Oeste 34 Oeste 0 -- -- 72
2020-03-26 14:00:00 17.3 20 Oeste 30 Oeste 0 -- -- 75
2020-03-26 13:00:00 16.7 18 Oeste 27 Oeste 0 -- -- 76
2020-03-26 12:00:00 16 17 Oeste 24 Oeste 0 -- -- 80
2020-03-26 11:00:00 16 15 Oeste 23 Oeste 0 -- -- 82
2020-03-26 10:00:00 15.6 14 Noroeste 27 Oeste 0 -- -- 82
2020-03-26 09:00:00 15.3 13 Oeste 19 Oeste 0 -- -- 93
2020-03-26 08:00:00 12.5 4 Sur 10 Sur 0 -- -- 98
2020-03-26 07:00:00 12.2 6 Sur 9 Sudeste 0 -- -- 98
2020-03-26 06:00:00 11.1 6 Sur 11 Sur 0 -- -- 97
2020-03-26 05:00:00 10.6 3 Sur 10 Sudeste 0 -- -- 95
2020-03-26 04:00:00 10.9 7 Sudeste 10 Sudeste 0 -- -- 95
2020-03-26 03:00:00 10.9 3 Sudeste 7 Sudeste 0 -- -- 94
2020-03-26 02:00:00 11.1 5 Sudeste 8 Sudeste 0 -- -- 94
2020-03-26 01:00:00 11.8 3 Este 10 Sudeste 0 -- -- 92
2020-03-26 00:00:00 12.5 5 Sudeste 10 Sudeste 0 -- -- 91
2020-03-25 23:00:00 13 5 Sudeste 9 Sudeste 0 -- -- 93
2020-03-25 22:00:00 13.7 4 Sur 7 Sudoeste 0 -- -- 91
2020-03-25 21:00:00 14.5 5 Sur 13 Sur 0 -- -- 89
2020-03-25 20:00:00 15.7 9 Sur 17 Sudoeste 0 -- -- 85
2020-03-25 19:00:00 16.5 11 Sur 19 Sur 0 -- -- 82
2020-03-25 18:00:00 18.1 12 Sudoeste 21 Sudoeste 0 -- -- 73
2020-03-25 17:00:00 19.2 13 Sudoeste 21 Sudoeste 0 -- -- 70
2020-03-25 16:00:00 18.2 4 Sur 15 Sudeste 0 -- -- 71
2020-03-25 15:00:00 18.4 6 Este 15 Este 0 -- -- 70
2020-03-25 14:00:00 17.6 8 Este 18 Este 0 -- -- 70
2020-03-25 13:00:00 16.7 12 Este 24 Este 0 -- -- 71
2020-03-25 12:00:00 16.9 14 Este 25 Este 0 -- -- 77
2020-03-25 11:00:00 14.9 12 Este 28 Este 0 -- -- 84
2020-03-25 10:00:00 14.4 17 Este 25 Este 0 -- -- 87
2020-03-25 09:00:00 13.7 7 Este 13 Este 0 -- -- 94
2020-03-25 08:00:00 13 0 Calma 5 Nordeste 0 -- -- 97
2020-03-25 07:00:00 12.9 3 Este 4 Nordeste 0 -- -- 97
2020-03-25 06:00:00 12.7 2 Nordeste 5 Nordeste 0 -- -- 97
2020-03-25 05:00:00 12.5 2 Nordeste 3 Este 0 -- -- 97
2020-03-25 04:00:00 12.1 0 Calma 5 Nordeste 0 -- -- 97
2020-03-25 03:00:00 12 2 Norte 8 Sudeste 0 -- -- 96
2020-03-25 02:00:00 12.1 4 Sur 5 Sudeste 0 -- -- 95
2020-03-25 01:00:00 12.7 0 Calma 10 Este 0 -- -- 94
2020-03-25 00:00:00 13.7 7 Sudeste 13 Sudeste 0 -- -- 96
2020-03-24 23:00:00 14.1 0 Calma 9 Sudeste 0 -- -- 95
2020-03-24 22:00:00 14.8 4 Sur 7 Sur 0 -- -- 95
2020-03-24 21:00:00 15.4 3 Sudeste 6 Sudoeste 0 -- -- 92
2020-03-24 20:00:00 16.2 3 Sur 7 Noroeste 0 -- -- 87
2020-03-24 19:00:00 17.1 3 Sudeste 8 Sudeste 0 -- -- 81
2020-03-24 18:00:00 16.9 5 Sudeste 10 Sur 0 -- -- 80
2020-03-24 17:00:00 16.9 5 Sur 12 Sudeste 0 -- -- 83
2020-03-24 16:00:00 15.9 7 Sudeste 17 Sudeste 0 -- -- 86
2020-03-24 15:00:00 16.2 8 Sudeste 21 Nordeste 0 -- -- 84
2020-03-24 14:00:00 15.4 9 Nordeste 17 Nordeste 0.2 -- -- 88
2020-03-24 13:00:00 13.8 4 Nordeste 19 Nordeste 0 -- -- 89
2020-03-24 12:00:00 13.2 11 Nordeste 20 Nordeste 0 -- -- 87
2020-03-24 11:00:00 12.3 6 Nordeste 14 Nordeste 0.2 -- -- 89
2020-03-24 10:00:00 11.8 4 Nordeste 22 Este 0 -- -- 93
2020-03-24 09:00:00 11.8 13 Nordeste 25 Nordeste 0 -- -- 90
2020-03-24 08:00:00 11.3 13 Nordeste 25 Nordeste 0 -- -- 93
2020-03-24 07:00:00 11.6 15 Nordeste 25 Nordeste 0 -- -- 96
2020-03-24 06:00:00 11.4 8 Norte 21 Norte 0 -- -- 96
2020-03-24 05:00:00 11.4 9 Nordeste 21 Norte 0 -- -- 95
2020-03-24 04:00:00 11.9 8 Norte 20 Nordeste 0 -- -- 93
2020-03-24 03:00:00 12 9 Nordeste 17 Nordeste 0 -- -- 91
2020-03-24 02:00:00 11.9 7 Nordeste 21 Norte 0.2 -- -- 94
2020-03-24 01:00:00 12.1 7 Norte 24 Nordeste 0.6 -- -- 95
2020-03-24 00:00:00 12.3 3 Noroeste 15 Nordeste 5.2 -- -- 93
2020-03-23 23:00:00 12.8 6 Sudeste 10 Sudeste 0 -- -- 89
2020-03-23 22:00:00 13.2 3 Norte 8 Noroeste 0 -- -- 86
2020-03-23 21:00:00 12.8 4 Norte 6 Norte 0 -- -- 87
2020-03-23 20:00:00 13.6 4 Este 9 Sudeste 0 -- -- 82
2020-03-23 19:00:00 14.4 8 Sudeste 26 Sudeste 0 -- -- 73
2020-03-23 18:00:00 16 19 Sudeste 36 Sudeste 0 -- -- 66
2020-03-23 17:00:00 19.7 9 Nordeste 21 Nordeste 0 -- -- 51
2020-03-23 16:00:00 19.8 8 Norte 21 Norte 0 -- -- 52
2020-03-23 15:00:00 19.1 10 Norte 22 Norte 0 -- -- 55
2020-03-23 14:00:00 18.4 9 Norte 19 Nordeste 0 -- -- 61
2020-03-23 13:00:00 17.3 9 Norte 20 Nordeste 0 -- -- 68
2020-03-23 12:00:00 16.8 9 Nordeste 22 Nordeste 0 -- -- 70
2020-03-23 11:00:00 15.3 8 Nordeste 14 Nordeste 0 -- -- 78
2020-03-23 10:00:00 13.1 8 Nordeste 19 Este 0 -- -- 86
2020-03-23 09:00:00 11.7 5 Nordeste 9 Nordeste 0 -- -- 96
2020-03-23 08:00:00 9.2 2 Este 5 Nordeste 0 -- -- 99
2020-03-23 07:00:00 8.2 3 Nordeste 5 Nordeste 0 -- -- 98
2020-03-23 06:00:00 8.2 0 Calma 9 Nordeste 0 -- -- 97
2020-03-23 05:00:00 8.3 3 Nordeste 4 Este 0 -- -- 97
2020-03-23 04:00:00 8.6 0 Calma 5 Este 0 -- -- 96
2020-03-23 03:00:00 9.1 3 Nordeste 5 Nordeste 0 -- -- 96
2020-03-23 02:00:00 9.7 3 Nordeste 6 Norte 0 -- -- 96
2020-03-23 01:00:00 9.4 5 Nordeste 9 Nordeste 0 -- -- 96
2020-03-23 00:00:00 9.6 2 Sudeste 4 Sudeste 0 -- -- 94
2020-03-22 23:00:00 10.3 3 Sudeste 4 Sudeste 0 -- -- 93
2020-03-22 22:00:00 11.2 0 Calma 2 Sudeste 0 -- -- 90
2020-03-22 21:00:00 12.2 0 Calma 7 Oeste 0 -- -- 85
2020-03-22 20:00:00 13.5 4 Oeste 11 Oeste 0 -- -- 79
2020-03-22 19:00:00 15 9 Oeste 15 Oeste 0 -- -- 74
2020-03-22 18:00:00 15.6 12 Oeste 19 Oeste 0 -- -- 71
2020-03-22 17:00:00 15.8 10 Oeste 22 Oeste 0 -- -- 72
2020-03-22 16:00:00 16 13 Oeste 21 Sudoeste 0 -- -- 73
2020-03-22 15:00:00 15.8 13 Oeste 21 Oeste 0 -- -- 74
2020-03-22 14:00:00 15.5 12 Oeste 20 Oeste 0 -- -- 75
2020-03-22 13:00:00 15.1 11 Oeste 18 Oeste 0 -- -- 77
2020-03-22 12:00:00 14.6 10 Oeste 17 Oeste 0 -- -- 76
2020-03-22 11:00:00 14.1 6 Oeste 9 Noroeste 0 -- -- 77
2020-03-22 10:00:00 13.4 3 Nordeste 8 Este 0 -- -- 84
2020-03-22 09:00:00 11 2 Nordeste 5 Nordeste 0 -- -- 99
2020-03-22 08:00:00 8.1 4 Nordeste 6 Nordeste 0 -- -- 100
2020-03-22 07:00:00 8.2 4 Este 6 Este 0 -- -- 99
2020-03-22 06:00:00 8.5 4 Este 6 Este 0 -- -- 98
2020-03-22 05:00:00 8.9 2 Este 7 Este 0 -- -- 97
2020-03-22 04:00:00 9.3 3 Este 4 Este 0 -- -- 96
2020-03-22 03:00:00 10.3 2 Este 5 Este 0 -- -- 95
2020-03-22 02:00:00 11.3 3 Nordeste 19 Sur 0 -- -- 93
2020-03-22 01:00:00 12.3 9 Sur 19 Sur 4 -- -- 92
2020-03-22 00:00:00 12.9 10 Sur 24 Sudoeste 0 -- -- 83
2020-03-21 23:00:00 13.1 11 Sudoeste 33 Sur 0.2 -- -- 81
2020-03-21 22:00:00 13.8 16 Sudoeste 27 Sudoeste 0 -- -- 76
2020-03-21 21:00:00 13.7 10 Sudoeste 34 Sudoeste 0 -- -- 73
2020-03-21 20:00:00 14 15 Sudoeste 28 Sudoeste 0 -- -- 74
2020-03-21 19:00:00 13.9 7 Noroeste 36 Sudoeste 0 -- -- 75
2020-03-21 18:00:00 15.5 24 Sudoeste 36 Sudoeste 0 -- -- 69
2020-03-21 17:00:00 15.9 18 Oeste 37 Oeste 0 -- -- 77
2020-03-21 16:00:00 15.8 23 Sudoeste 41 Sur 0 -- -- 74
2020-03-21 15:00:00 15.9 23 Sur 47 Sur 0 -- -- 84
2020-03-21 14:00:00 15.1 30 Sur 51 Sur 0 -- -- 84
2020-03-21 13:00:00 13.2 23 Sur 36 Sudeste 0.2 -- -- 90
2020-03-21 12:00:00 13 8 Sudeste 15 Oeste 1.2 -- -- 93
2020-03-21 11:00:00 11.4 8 Oeste 30 Oeste 5.2 -- -- 93
2020-03-21 10:00:00 13 10 Sudoeste 23 Sur 0.6 -- -- 84
2020-03-21 09:00:00 13.4 6 Sudeste 12 Sudeste 0 -- -- 87
2020-03-21 08:00:00 11.6 3 Sudoeste 19 Sudoeste 0.4 -- -- 86
2020-03-21 07:00:00 12.7 15 Oeste 24 Oeste 0 -- -- 82
2020-03-21 06:00:00 12 4 Oeste 23 Oeste 0.2 -- -- 89
2020-03-21 05:00:00 12.3 22 Oeste 37 Oeste 0.4 -- -- 82
2020-03-21 04:00:00 13 10 Oeste 20 Oeste 0 -- -- 85
2020-03-21 03:00:00 12.8 10 Oeste 22 Oeste 0 -- -- 86
2020-03-21 02:00:00 12.9 14 Oeste 25 Sudoeste 0 -- -- 89
2020-03-21 01:00:00 12.6 16 Oeste 27 Oeste 0 -- -- 89
2020-03-21 00:00:00 12.8 15 Oeste 32 Sudoeste 0.8 -- -- 94
2020-03-20 23:00:00 13.4 17 Oeste 38 Sudeste 5.4 -- -- 97
2020-03-20 22:00:00 14.6 22 Sudeste 40 Sudeste 0.6 -- -- 94
2020-03-20 21:00:00 14.7 27 Sudeste 41 Este 0 -- -- 89
2020-03-20 20:00:00 15.8 19 Sudeste 42 Este 0 -- -- 83
2020-03-20 19:00:00 16.8 21 Sudeste 38 Sudeste 0 -- -- 77
2020-03-20 18:00:00 17.8 23 Sudeste 44 Sudeste 0 -- -- 75
2020-03-20 17:00:00 18.7 27 Este 47 Sudeste 0 -- -- 71
2020-03-20 16:00:00 19.5 29 Sudeste 50 Sudeste 0 -- -- 69
2020-03-20 15:00:00 19.8 29 Este 49 Este 0 -- -- 66
2020-03-20 14:00:00 18.8 24 Este 45 Este 0 -- -- 73
2020-03-20 13:00:00 18.6 27 Sudeste 41 Este 0.2 -- -- 73
2020-03-20 12:00:00 16.7 22 Sudeste 39 Sudeste 0 -- -- 82
2020-03-20 11:00:00 15.9 19 Este 35 Este 0 -- -- 82
2020-03-20 10:00:00 15.9 15 Este 27 Este 0 -- -- 83
2020-03-20 09:00:00 13.9 9 Este 16 Este 0 -- -- 89
2020-03-20 08:00:00 13.1 7 Nordeste 12 Nordeste 0 -- -- 85
2020-03-20 07:00:00 12.5 5 Nordeste 14 Este 0 -- -- 83
2020-03-20 06:00:00 12.8 6 Este 15 Este 0 -- -- 84
2020-03-20 05:00:00 12.4 8 Este 14 Este 0 -- -- 88
2020-03-20 04:00:00 12.5 4 Este 15 Este 0 -- -- 87
2020-03-20 03:00:00 13.7 10 Este 26 Sudeste 0 -- -- 84
2020-03-20 02:00:00 14.7 9 Este 28 Sudeste 0 -- -- 81
2020-03-20 01:00:00 15.1 16 Este 30 Sudeste 0 -- -- 80
2020-03-20 00:00:00 14.2 10 Sudeste 17 Sudeste 0 -- -- 85
2020-03-19 23:00:00 14.4 8 Este 14 Este 0 -- -- 85
2020-03-19 22:00:00 15.1 9 Sudeste 15 Este 0 -- -- 82
2020-03-19 21:00:00 15.6 5 Sudeste 12 Sudeste 0 -- -- 82
2020-03-19 20:00:00 16.3 4 Noroeste 8 Noroeste 0 -- -- 88
2020-03-19 19:00:00 17.2 2 Noroeste 7 Oeste 0 -- -- 85
2020-03-19 18:00:00 17.7 4 Oeste 12 Noroeste 0 -- -- 82
2020-03-19 17:00:00 17.9 7 Noroeste 13 Noroeste 0 -- -- 81
2020-03-19 16:00:00 18.5 6 Noroeste 14 Oeste 0 -- -- 75
2020-03-19 15:00:00 19.1 11 Oeste 15 Oeste 0 -- -- 68
2020-03-19 14:00:00 19 11 Oeste 15 Oeste 0 -- -- 69
2020-03-19 13:00:00 19.2 8 Noroeste 14 Noroeste 0 -- -- 69
2020-03-19 12:00:00 17.6 10 Noroeste 18 Noroeste 0 -- -- 73
2020-03-19 11:00:00 16.8 4 Noroeste 8 Norte 0 -- -- 76
2020-03-19 10:00:00 15.1 4 Nordeste 14 Nordeste 0 -- -- 80
2020-03-19 09:00:00 14.4 6 Nordeste 22 Nordeste 0 -- -- 83
2020-03-19 08:00:00 14.6 12 Nordeste 32 Nordeste 0 -- -- 78
2020-03-19 07:00:00 14.5 19 Nordeste 46 Nordeste 0 -- -- 78
2020-03-19 06:00:00 15.7 19 Nordeste 38 Este 0 -- -- 75
2020-03-19 05:00:00 16 19 Este 43 Este 0 -- -- 78
2020-03-19 04:00:00 15.8 23 Este 45 Este 0 -- -- 78
2020-03-19 03:00:00 16 27 Este 48 Este 0 -- -- 77
2020-03-19 02:00:00 16.1 23 Este 50 Sudeste 0 -- -- 77
2020-03-19 01:00:00 16.3 21 Sudeste 38 Sudeste 0 -- -- 75
2020-03-19 00:00:00 16 21 Este 34 Este 0 -- -- 76
2020-03-18 23:00:00 15.5 15 Sudeste 24 Este 0 -- -- 79
2020-03-18 22:00:00 15.6 8 Sudeste 16 Este 0 -- -- 80
2020-03-18 21:00:00 16.3 12 Sudeste 23 Este 0 -- -- 76
2020-03-18 20:00:00 17.5 9 Sudeste 23 Este 0 -- -- 75
2020-03-18 19:00:00 19.3 15 Este 28 Este 0 -- -- 67
2020-03-18 18:00:00 20.4 20 Este 40 Este 0 -- -- 60
2020-03-18 17:00:00 21.1 28 Este 45 Este 0 -- -- 59
2020-03-18 16:00:00 21.3 31 Este 47 Este 0 -- -- 58
2020-03-18 15:00:00 22 27 Este 60 Este 0 -- -- 58
2020-03-18 14:00:00 21.4 36 Este 61 Este 0 -- -- 61
2020-03-18 13:00:00 20.9 31 Este 55 Este 0 -- -- 62
2020-03-18 12:00:00 18.2 5 Norte 16 Nordeste 0 -- -- 76
2020-03-18 11:00:00 16.8 6 Norte 19 Nordeste 0 -- -- 80
2020-03-18 10:00:00 14.6 10 Nordeste 19 Nordeste 0 -- -- 85
2020-03-18 09:00:00 13.5 4 Nordeste 13 Nordeste 0 -- -- 89
2020-03-18 08:00:00 13.6 8 Nordeste 14 Este 0 -- -- 88
2020-03-18 07:00:00 13.3 6 Nordeste 13 Norte 0 -- -- 92
2020-03-18 06:00:00 12.9 5 Norte 10 Noroeste 0 -- -- 92
2020-03-18 05:00:00 12.8 4 Norte 9 Norte 0 -- -- 91
2020-03-18 04:00:00 12.8 3 Norte 7 Noroeste 0 -- -- 90
2020-03-18 03:00:00 12.8 2 Norte 16 Noroeste 0 -- -- 90
2020-03-18 02:00:00 12.7 5 Noroeste 14 Oeste 2.4 -- -- 95
2020-03-18 01:00:00 13.1 10 Oeste 16 Oeste 2.4 -- -- 95
2020-03-18 00:00:00 12.9 6 Oeste 17 Sur 6 -- -- 92
2020-03-17 23:00:00 14.1 9 Sudeste 19 Nordeste 0 -- -- 78
2020-03-17 22:00:00 14.1 10 Nordeste 21 Nordeste 0.4 -- -- 76
2020-03-17 21:00:00 14.8 8 Nordeste 24 Nordeste 0 -- -- 71
2020-03-17 20:00:00 14.4 6 Nordeste 10 Nordeste 0 -- -- 78
2020-03-17 19:00:00 14.8 4 Nordeste 9 Este 0 -- -- 71
2020-03-17 18:00:00 14.9 6 Este 35 Este 0 -- -- 69
2020-03-17 17:00:00 15.8 12 Este 39 Este 0 -- -- 63
2020-03-17 16:00:00 17 26 Este 40 Este 0 -- -- 60
2020-03-17 15:00:00 13.4 10 Nordeste 22 Norte 0 -- -- 84
2020-03-17 14:00:00 12.7 15 Nordeste 24 Nordeste 0 -- -- 85
2020-03-17 13:00:00 12.4 11 Sudeste 46 Sur 1 -- -- 88
2020-03-17 12:00:00 10.1 30 Sudeste 48 Este 3.6 -- -- 92
2020-03-17 11:00:00 8.6 16 Nordeste 29 Este 2 -- -- 97
2020-03-17 10:00:00 8.1 13 Nordeste 26 Nordeste 6.8 -- -- 98
2020-03-17 09:00:00 8.4 10 Nordeste 18 Este 2.2 -- -- 96
2020-03-17 08:00:00 8.6 3 Nordeste 10 Este 3.8 -- -- 96
2020-03-17 07:00:00 8.8 8 Este 16 Este 2 -- -- 96
2020-03-17 06:00:00 9 4 Este 10 Este 1.6 -- -- 96
2020-03-17 05:00:00 9.1 2 Nordeste 14 Este 2.8 -- -- 95
2020-03-17 04:00:00 9.2 8 Este 13 Sudeste 1.2 -- -- 96
2020-03-17 03:00:00 9.4 4 Nordeste 14 Nordeste 1.6 -- -- 95
2020-03-17 02:00:00 9.3 5 Nordeste 28 Norte 1.8 -- -- 91
2020-03-17 01:00:00 10.4 11 Norte 25 Norte 0.8 -- -- 81
2020-03-17 00:00:00 12 4 Nordeste 12 Nordeste 0.6 -- -- 74
2020-03-16 23:00:00 12.9 6 Este 12 Nordeste 0 -- -- 58
2020-03-16 22:00:00 13.6 6 Nordeste 20 Nordeste 0 -- -- 56
2020-03-16 21:00:00 14.8 8 Norte 24 Norte 0 -- -- 50
2020-03-16 20:00:00 15.4 12 Norte 27 Norte 0 -- -- 47
2020-03-16 19:00:00 16.2 17 Noroeste 31 Noroeste 0 -- -- 47
2020-03-16 18:00:00 17.3 20 Oeste 34 Oeste 0 -- -- 43
2020-03-16 17:00:00 17.5 24 Oeste 37 Oeste 0 -- -- 48
2020-03-16 16:00:00 17.6 27 Oeste 42 Oeste 0 -- -- 42
2020-03-16 15:00:00 16.7 27 Oeste 41 Oeste 0 -- -- 50
2020-03-16 14:00:00 15.7 25 Oeste 40 Oeste 0 -- -- 50
2020-03-16 13:00:00 15 23 Oeste 35 Oeste 0 -- -- 55
2020-03-16 12:00:00 13.2 19 Oeste 35 Noroeste 0 -- -- 63
2020-03-16 11:00:00 12.4 28 Noroeste 42 Noroeste 0 -- -- 59
2020-03-16 10:00:00 12.2 20 Noroeste 37 Noroeste 0 -- -- 63
2020-03-16 09:00:00 11.2 16 Noroeste 35 Noroeste 0 -- -- 67
2020-03-16 08:00:00 9.8 14 Noroeste 27 Noroeste 0 -- -- 69
2020-03-16 07:00:00 10.4 11 Noroeste 27 Noroeste 0 -- -- 62
2020-03-16 06:00:00 11.1 14 Noroeste 35 Noroeste 0 -- -- 58
2020-03-16 05:00:00 12 16 Noroeste 33 Noroeste 0 -- -- 57
2020-03-16 04:00:00 12.8 18 Noroeste 35 Noroeste 0 -- -- 60
2020-03-16 03:00:00 13.8 21 Noroeste 40 Noroeste 0 -- -- 59
2020-03-16 02:00:00 14.6 21 Noroeste 44 Noroeste 0 -- -- 71
2020-03-16 01:00:00 16.3 23 Noroeste 37 Oeste 0 -- -- 73
2020-03-16 00:00:00 16.4 16 Sudoeste 24 Oeste 0 -- -- 90
2020-03-15 23:00:00 16.1 14 Sudoeste 24 Oeste 0 -- -- 92
2020-03-15 22:00:00 16.1 13 Oeste 24 Oeste 0 -- -- 93
2020-03-15 21:00:00 16.1 11 Sudoeste 24 Oeste 0 -- -- 91
2020-03-15 20:00:00 16.3 14 Oeste 25 Oeste 0 -- -- 88
2020-03-15 19:00:00 17.3 17 Oeste 26 Oeste 0 -- -- 83
2020-03-15 18:00:00 18.6 14 Oeste 24 Oeste 0 -- -- 76
2020-03-15 17:00:00 18.9 15 Oeste 24 Sudoeste 0 -- -- 76
2020-03-15 16:00:00 19.6 14 Oeste 27 Oeste 0 -- -- 74
2020-03-15 15:00:00 19.4 17 Oeste 26 Oeste 0 -- -- 74
2020-03-15 14:00:00 20.1 17 Oeste 26 Oeste 0 -- -- 72
2020-03-15 13:00:00 21.4 6 Este 20 Nordeste 0 -- -- 62
2020-03-15 12:00:00 19.6 5 Nordeste 13 Nordeste 0 -- -- 66
2020-03-15 11:00:00 17.9 6 Nordeste 13 Este 0 -- -- 74
2020-03-15 10:00:00 15.9 4 Norte 9 Norte 0 -- -- 82
2020-03-15 09:00:00 11.8 0 Calma 6 Nordeste 0 -- -- 93
2020-03-15 08:00:00 11.7 5 Nordeste 12 Este 0 -- -- 91
2020-03-15 07:00:00 12.5 6 Este 13 Sudeste 0 -- -- 90
2020-03-15 06:00:00 13.8 8 Sudeste 15 Sudeste 0 -- -- 88
2020-03-15 05:00:00 13.8 9 Sudeste 20 Sudeste 0 -- -- 90
2020-03-15 04:00:00 13.2 10 Sudeste 21 Sudeste 0 -- -- 90
2020-03-15 03:00:00 11.8 5 Sudeste 10 Sudeste 0 -- -- 96
2020-03-15 02:00:00 12 2 Sudeste 7 Este 0 -- -- 94
2020-03-15 01:00:00 12.6 3 Este 4 Sudeste 0 -- -- 94
2020-03-15 00:00:00 13.1 4 Sudeste 5 Sudeste 0 -- -- 93
2020-03-14 23:00:00 13.7 0 Calma 5 Noroeste 0 -- -- 91
2020-03-14 22:00:00 14.7 3 Noroeste 9 Oeste 0 -- -- 89
2020-03-14 21:00:00 15.3 5 Oeste 9 Oeste 0 -- -- 89
2020-03-14 20:00:00 15.9 6 Oeste 12 Oeste 0 -- -- 86
2020-03-14 19:00:00 17.3 8 Oeste 15 Oeste 0 -- -- 79
2020-03-14 18:00:00 18.3 11 Oeste 18 Oeste 0 -- -- 75
2020-03-14 17:00:00 18.8 13 Oeste 19 Oeste 0 -- -- 74
2020-03-14 16:00:00 18.9 13 Oeste 20 Oeste 0 -- -- 73
2020-03-14 15:00:00 19 13 Oeste 20 Oeste 0 -- -- 72
2020-03-14 14:00:00 18.8 15 Oeste 22 Oeste 0 -- -- 72
2020-03-14 13:00:00 20.3 10 Sur 19 Sudoeste 0 -- -- 66
2020-03-14 12:00:00 19.7 6 Sudeste 17 Sur 0 -- -- 66
2020-03-14 11:00:00 18.2 8 Sur 19 Sudeste 0 -- -- 73
2020-03-14 10:00:00 16.2 10 Sudeste 15 Sur 0 -- -- 82
2020-03-14 09:00:00 15 6 Este 11 Este 0 -- -- 87
2020-03-14 08:00:00 14.3 5 Este 9 Este 0 -- -- 90
2020-03-14 07:00:00 14.1 4 Este 10 Este 0 -- -- 93
2020-03-14 06:00:00 14.5 4 Este 7 Este 0 -- -- 91
2020-03-14 05:00:00 14.3 4 Sur 13 Sur 0 -- -- 92
2020-03-14 04:00:00 14.2 3 Sur 9 Sur 0 -- -- 94
2020-03-14 03:00:00 13.8 3 Sur 9 Sudeste 0 -- -- 96
2020-03-14 02:00:00 13 3 Sudeste 5 Sudeste 0 -- -- 95
2020-03-14 01:00:00 13.8 2 Sur 4 Sur 0 -- -- 95
2020-03-14 00:00:00 13.5 3 Sur 4 Sudeste 0 -- -- 96
2020-03-13 23:00:00 13 2 Sudeste 3 Sudeste 0 -- -- 93
2020-03-13 22:00:00 14 2 Sudoeste 11 Oeste 0 -- -- 91
2020-03-13 21:00:00 14.9 6 Oeste 16 Oeste 0 -- -- 91
2020-03-13 20:00:00 14.9 9 Sudoeste 14 Sudoeste 0 -- -- 91
2020-03-13 19:00:00 16.4 7 Sudoeste 14 Sudoeste 0 -- -- 84
2020-03-13 18:00:00 17.6 10 Sudoeste 16 Sudoeste 0 -- -- 78
2020-03-13 17:00:00 17.8 9 Sudoeste 21 Sudoeste 0 -- -- 77
2020-03-13 16:00:00 18.5 11 Sudoeste 26 Sudoeste 0 -- -- 73
2020-03-13 15:00:00 18.8 12 Sudoeste 23 Sur 0 -- -- 70
2020-03-13 14:00:00 18.9 9 Sudoeste 22 Sudoeste 0 -- -- 69
2020-03-13 13:00:00 18.5 11 Sudoeste 19 Sudoeste 0 -- -- 70
2020-03-13 12:00:00 18.3 9 Sudoeste 18 Sudoeste 0 -- -- 72
2020-03-13 11:00:00 17.5 7 Sudoeste 15 Oeste 0 -- -- 74
2020-03-13 10:00:00 16 7 Sudoeste 13 Sudoeste 0 -- -- 80
2020-03-13 09:00:00 15.2 4 Sudoeste 10 Sudoeste 0 -- -- 83
2020-03-13 08:00:00 14.6 3 Sudoeste 8 Oeste 0 -- -- 87
2020-03-13 07:00:00 14.6 0 Calma 11 Oeste 0 -- -- 87
2020-03-13 06:00:00 14.5 5 Oeste 10 Sudoeste 0 -- -- 88
2020-03-13 05:00:00 14.5 4 Sudoeste 13 Sudoeste 0 -- -- 89
2020-03-13 04:00:00 14.6 3 Sudoeste 10 Sur 0 -- -- 89
2020-03-13 03:00:00 14.9 7 Sudoeste 16 Sudoeste 0 -- -- 92
2020-03-13 02:00:00 15 5 Oeste 14 Oeste 0 -- -- 95
2020-03-13 01:00:00 15.1 5 Sudoeste 8 Sudoeste 0 -- -- 98
2020-03-13 00:00:00 13.5 0 Calma 4 Sudeste 0 -- -- 96
2020-03-12 23:00:00 13.4 0 Calma 4 Sudeste 0 -- -- 94
2020-03-12 22:00:00 14.6 3 Sudeste 5 Sudeste 0 -- -- 94
2020-03-12 21:00:00 15.4 3 Sudoeste 6 Oeste 0 -- -- 93
2020-03-12 20:00:00 16.1 4 Sudoeste 10 Oeste 0 -- -- 92
2020-03-12 19:00:00 17.1 8 Oeste 17 Sudoeste 0 -- -- 89
2020-03-12 18:00:00 17.7 13 Sudoeste 19 Oeste 0 -- -- 86
2020-03-12 17:00:00 18.6 14 Oeste 23 Sudoeste 0 -- -- 84
2020-03-12 16:00:00 18.4 15 Sudoeste 26 Sudoeste 0 -- -- 83
2020-03-12 15:00:00 19.7 14 Sudoeste 25 Sudoeste 0 -- -- 77
2020-03-12 14:00:00 20.4 12 Sudoeste 21 Sudoeste 0 -- -- 73
2020-03-12 13:00:00 18.8 12 Sudoeste 22 Sur 0 -- -- 80
2020-03-12 12:00:00 18.9 12 Sur 19 Sur 0 -- -- 81
2020-03-12 11:00:00 17.5 9 Sur 20 Sur 0 -- -- 84
2020-03-12 10:00:00 17.4 11 Sur 19 Sur 0 -- -- 86
2020-03-12 09:00:00 15.3 8 Sur 16 Sudoeste 0 -- -- 97
2020-03-12 08:00:00 14.4 8 Sur 14 Sur 0 -- -- 97
2020-03-12 07:00:00 14.2 7 Sur 21 Sur 0 -- -- 97
2020-03-12 06:00:00 14.5 9 Sur 22 Sur 0 -- -- 97
2020-03-12 05:00:00 14.4 11 Sur 21 Sur 0 -- -- 96
2020-03-12 04:00:00 14.3 8 Sudeste 12 Sur 0 -- -- 83
2020-03-12 03:00:00 14.2 6 Sudeste 10 Sudeste 0 -- -- 64
2020-03-12 02:00:00 15.3 6 Este 10 Sudeste 0 -- -- 60
2020-03-12 01:00:00 16.7 4 Sur 12 Sudeste 0 -- -- 56
2020-03-12 00:00:00 18.1 8 Sudeste 21 Sudeste 0 -- -- 51
2020-03-11 23:00:00 20.1 15 Sudeste 27 Sudeste 0 -- -- 44
2020-03-11 22:00:00 20.2 12 Sudeste 30 Este 0 -- -- 44
2020-03-11 21:00:00 21.3 21 Este 32 Este 0 -- -- 43
2020-03-11 20:00:00 22 14 Sudeste 29 Este 0 -- -- 43
2020-03-11 19:00:00 24.7 16 Este 31 Sudeste 0 -- -- 39
2020-03-11 18:00:00 26 13 Sudeste 24 Sudeste 0 -- -- 38
2020-03-11 17:00:00 25.6 7 Sur 15 Sur 0 -- -- 43
2020-03-11 16:00:00 24.4 5 Noroeste 22 Sudeste 0 -- -- 54
2020-03-11 15:00:00 26.1 9 Oeste 18 Oeste 0 -- -- 44
2020-03-11 14:00:00 28.4 12 Sudeste 33 Este 0 -- -- 36
2020-03-11 13:00:00 26.8 16 Este 34 Este 0 -- -- 38
2020-03-11 12:00:00 23.1 12 Nordeste 32 Este 0 -- -- 45
2020-03-11 11:00:00 20.6 18 Nordeste 34 Este 0 -- -- 49
2020-03-11 10:00:00 17.3 14 Este 23 Este 0 -- -- 53
2020-03-11 09:00:00 13.8 6 Nordeste 10 Nordeste 0 -- -- 63
2020-03-11 08:00:00 11.5 5 Nordeste 13 Este 0 -- -- 69
2020-03-11 07:00:00 12.5 9 Nordeste 18 Este 0 -- -- 66
2020-03-11 06:00:00 12.5 3 Nordeste 16 Este 0 -- -- 63
2020-03-11 05:00:00 12.6 5 Nordeste 15 Este 0 -- -- 60
2020-03-11 04:00:00 13.5 6 Este 16 Este 0 -- -- 57
2020-03-11 03:00:00 13.9 5 Este 18 Este 0 -- -- 57
2020-03-11 02:00:00 14.6 11 Este 20 Este 0 -- -- 54
2020-03-11 01:00:00 15.5 12 Este 17 Este 0 -- -- 52
2020-03-11 00:00:00 15.4 8 Sudeste 19 Sudeste 0 -- -- 54
2020-03-10 23:00:00 15.8 9 Sudeste 20 Sudeste 0 -- -- 54
2020-03-10 22:00:00 16.7 10 Este 24 Sudeste 0 -- -- 51
2020-03-10 21:00:00 18.3 15 Este 26 Sudeste 0 -- -- 49
2020-03-10 20:00:00 19.7 10 Sudeste 24 Sudeste 0 -- -- 50
2020-03-10 19:00:00 22.7 10 Sudeste 23 Sudeste 0 -- -- 51
2020-03-10 18:00:00 25.9 12 Sudeste 19 Sudeste 0 -- -- 41
2020-03-10 17:00:00 26.3 8 Sudoeste 14 Sudoeste 0 -- -- 39
2020-03-10 16:00:00 23 10 Oeste 15 Oeste 0 -- -- 47
2020-03-10 15:00:00 24.6 9 Oeste 14 Este 0 -- -- 45
2020-03-10 14:00:00 25.8 6 Noroeste 18 Nordeste 0 -- -- 40
2020-03-10 13:00:00 24.2 10 Este 32 Nordeste 0 -- -- 37
2020-03-10 12:00:00 21.6 21 Nordeste 36 Nordeste 0 -- -- 41
2020-03-10 11:00:00 18.8 16 Nordeste 36 Nordeste 0 -- -- 49
2020-03-10 10:00:00 16.3 18 Nordeste 35 Nordeste 0 -- -- 55
2020-03-10 09:00:00 14.5 12 Nordeste 25 Norte 0 -- -- 62
2020-03-10 08:00:00 13.1 13 Nordeste 29 Nordeste 0 -- -- 63
2020-03-10 07:00:00 14.1 13 Norte 34 Nordeste 0 -- -- 59
2020-03-10 06:00:00 14.4 11 Norte 24 Norte 0 -- -- 60
2020-03-10 05:00:00 14.5 10 Norte 20 Norte 0 -- -- 63
2020-03-10 04:00:00 12.9 5 Norte 10 Norte 0 -- -- 69
2020-03-10 03:00:00 13.6 3 Norte 9 Noroeste 0 -- -- 71
2020-03-10 02:00:00 14.1 4 Noroeste 15 Norte 0 -- -- 69
2020-03-10 01:00:00 15.1 6 Norte 14 Noroeste 0 -- -- 60
2020-03-10 00:00:00 15 0 Calma 13 Noroeste 0 -- -- 64
2020-03-09 23:00:00 16.6 9 Noroeste 22 Oeste 0 -- -- 68
2020-03-09 22:00:00 17.5 16 Oeste 26 Oeste 0 -- -- 68
2020-03-09 21:00:00 17.3 15 Oeste 26 Oeste 0 -- -- 71
2020-03-09 20:00:00 17.4 14 Oeste 27 Oeste 0 -- -- 67
2020-03-09 19:00:00 17.9 17 Oeste 26 Sudoeste 0 -- -- 68
2020-03-09 18:00:00 18.8 16 Sudoeste 26 Sudoeste 0 -- -- 68
2020-03-09 17:00:00 19.5 16 Oeste 33 Oeste 0 -- -- 63
2020-03-09 16:00:00 18.6 22 Oeste 31 Oeste 0 -- -- 66
2020-03-09 15:00:00 18.4 20 Oeste 28 Oeste 0 -- -- 70
2020-03-09 14:00:00 18.4 18 Oeste 24 Oeste 0 -- -- 73
2020-03-09 13:00:00 18.6 9 Noroeste 18 Oeste 0 -- -- 68
2020-03-09 12:00:00 18.4 8 Norte 17 Norte 0 -- -- 63
2020-03-09 11:00:00 16.7 8 Norte 16 Nordeste 0 -- -- 69
2020-03-09 10:00:00 14.5 6 Norte 18 Norte 0 -- -- 82
2020-03-09 09:00:00 12.8 5 Norte 13 Norte 0 -- -- 89
2020-03-09 08:00:00 10.3 5 Norte 10 Noroeste 0 -- -- 89
2020-03-09 07:00:00 10.4 4 Este 10 Norte 0 -- -- 83
2020-03-09 06:00:00 12.5 5 Norte 12 Nordeste 0 -- -- 80
2020-03-09 05:00:00 12.3 2 Nordeste 17 Norte 0 -- -- 75
2020-03-09 04:00:00 13.3 6 Norte 18 Noroeste 0 -- -- 74
2020-03-09 03:00:00 13.9 6 Noroeste 13 Noroeste 0 -- -- 73
2020-03-09 02:00:00 14.5 5 Norte 12 Norte 0 -- -- 73
2020-03-09 01:00:00 14.6 4 Noroeste 8 Noroeste 0 -- -- 78
2020-03-09 00:00:00 15.1 4 Noroeste 10 Noroeste 0 -- -- 81
2020-03-08 23:00:00 16.2 6 Oeste 12 Oeste 0 -- -- 79
2020-03-08 22:00:00 15.9 5 Oeste 23 Oeste 0 -- -- 82
2020-03-08 21:00:00 16.3 14 Oeste 22 Oeste 0 -- -- 73
2020-03-08 20:00:00 16.1 7 Oeste 12 Oeste 0 -- -- 76
2020-03-08 19:00:00 18.1 7 Oeste 22 Oeste 0 -- -- 65
2020-03-08 18:00:00 19.2 12 Oeste 24 Noroeste 0 -- -- 57
2020-03-08 17:00:00 19.9 12 Oeste 21 Oeste 0 -- -- 55
2020-03-08 16:00:00 19.3 15 Oeste 23 Oeste 0 -- -- 67
2020-03-08 15:00:00 21.7 12 Oeste 20 Oeste 0 -- -- 43
2020-03-08 14:00:00 21.6 7 Norte 17 Norte 0 -- -- 38
2020-03-08 13:00:00 20.3 10 Norte 22 Nordeste 0 -- -- 45
2020-03-08 12:00:00 18.4 9 Nordeste 19 Nordeste 0 -- -- 50
2020-03-08 11:00:00 15.8 9 Nordeste 22 Nordeste 0 -- -- 54
2020-03-08 10:00:00 12.8 11 Nordeste 25 Nordeste 0 -- -- 59
2020-03-08 09:00:00 10 9 Nordeste 18 Nordeste 0 -- -- 72
2020-03-08 08:00:00 8.2 6 Nordeste 13 Norte 0 -- -- 84
2020-03-08 07:00:00 8.6 5 Norte 16 Norte 0 -- -- 84
2020-03-08 06:00:00 9.5 10 Nordeste 18 Nordeste 0 -- -- 74
2020-03-08 05:00:00 9.5 7 Nordeste 12 Nordeste 0 -- -- 79
2020-03-08 04:00:00 10.2 5 Nordeste 13 Nordeste 0 -- -- 75
2020-03-08 03:00:00 9.8 8 Nordeste 11 Nordeste 0 -- -- 76
2020-03-08 02:00:00 10.6 5 Nordeste 9 Norte 0 -- -- 76
2020-03-08 01:00:00 10.3 5 Norte 7 Norte 0 -- -- 82
2020-03-08 00:00:00 9.3 3 Norte 5 Norte 0 -- -- 77
2020-03-07 23:00:00 10.5 4 Nordeste 6 Nordeste 0 -- -- 72
2020-03-07 22:00:00 12.3 0 Calma 6 Norte 0 -- -- 73
2020-03-07 21:00:00 14.8 2 Norte 7 Nordeste 0 -- -- 62
2020-03-07 20:00:00 17.4 5 Nordeste 14 Norte 0 -- -- 49
2020-03-07 19:00:00 20.3 5 Norte 24 Norte 0 -- -- 41
2020-03-07 18:00:00 21.6 12 Nordeste 28 Nordeste 0 -- -- 35
2020-03-07 17:00:00 22.1 15 Norte 33 Nordeste 0 -- -- 33
2020-03-07 16:00:00 22.2 14 Norte 31 Norte 0 -- -- 33
2020-03-07 15:00:00 21.4 13 Norte 28 Nordeste 0 -- -- 34
2020-03-07 14:00:00 20.6 18 Nordeste 36 Nordeste 0 -- -- 36
2020-03-07 13:00:00 18.8 13 Norte 34 Nordeste 0 -- -- 44
2020-03-07 12:00:00 16.6 16 Nordeste 36 Nordeste 0 -- -- 53
2020-03-07 11:00:00 14.1 15 Nordeste 32 Nordeste 0 -- -- 58
2020-03-07 10:00:00 12.1 17 Nordeste 29 Nordeste 0 -- -- 60
2020-03-07 09:00:00 9.4 12 Nordeste 21 Nordeste 0 -- -- 75
2020-03-07 08:00:00 8.9 5 Norte 21 Nordeste 0 -- -- 76
2020-03-07 07:00:00 10 7 Norte 21 Norte 0 -- -- 73
2020-03-07 06:00:00 11.1 6 Norte 20 Norte 0 -- -- 70
2020-03-07 05:00:00 12.1 10 Norte 26 Noroeste 0 -- -- 68
2020-03-07 04:00:00 12.4 8 Noroeste 24 Noroeste 0 -- -- 73
2020-03-07 03:00:00 12.6 7 Noroeste 16 Norte 0 -- -- 70
2020-03-07 02:00:00 13.1 7 Norte 20 Noroeste 0 -- -- 67
2020-03-07 01:00:00 14.2 11 Noroeste 26 Noroeste 0 -- -- 67
2020-03-07 00:00:00 14.7 14 Noroeste 28 Noroeste 0 -- -- 66
2020-03-06 23:00:00 15.3 16 Noroeste 29 Noroeste 0 -- -- 65
2020-03-06 22:00:00 15.7 14 Noroeste 29 Noroeste 0 -- -- 67
2020-03-06 21:00:00 16.1 16 Noroeste 28 Noroeste 0 -- -- 65
2020-03-06 20:00:00 16.2 17 Oeste 26 Oeste 0 -- -- 70
2020-03-06 19:00:00 16.7 16 Oeste 35 Oeste 0 -- -- 74
2020-03-06 18:00:00 17.8 19 Oeste 32 Oeste 0 -- -- 68
2020-03-06 17:00:00 18.1 21 Oeste 36 Oeste 0 -- -- 63
2020-03-06 16:00:00 17.9 25 Oeste 39 Oeste 0 -- -- 61
2020-03-06 15:00:00 18 24 Oeste 38 Oeste 0 -- -- 58
2020-03-06 14:00:00 17.7 23 Oeste 36 Oeste 0 -- -- 59
2020-03-06 13:00:00 16.7 19 Oeste 31 Oeste 0 -- -- 67
2020-03-06 12:00:00 16 21 Oeste 33 Noroeste 0 -- -- 71
2020-03-06 11:00:00 15.6 19 Noroeste 37 Oeste 0 -- -- 72
2020-03-06 10:00:00 15 18 Noroeste 27 Oeste 0 -- -- 78
2020-03-06 09:00:00 13.9 16 Noroeste 35 Noroeste 0 -- -- 81
2020-03-06 08:00:00 13.2 23 Noroeste 34 Oeste 0 -- -- 82
2020-03-06 07:00:00 12.9 21 Noroeste 34 Oeste 0 -- -- 83
2020-03-06 06:00:00 12.7 18 Noroeste 36 Noroeste 0 -- -- 83
2020-03-06 05:00:00 13 23 Noroeste 35 Noroeste 0 -- -- 79
2020-03-06 04:00:00 13.1 19 Noroeste 38 Noroeste 0 -- -- 79
2020-03-06 03:00:00 13.3 22 Noroeste 39 Oeste 0 -- -- 77
2020-03-06 02:00:00 13.8 24 Noroeste 41 Noroeste 0 -- -- 75
2020-03-06 01:00:00 14.4 24 Noroeste 38 Noroeste 0 -- -- 74
2020-03-06 00:00:00 14.9 22 Noroeste 36 Noroeste 0 -- -- 74
2020-03-05 23:00:00 15.4 24 Noroeste 38 Oeste 0 -- -- 79
2020-03-05 22:00:00 16.1 15 Noroeste 25 Oeste 0 -- -- 70
2020-03-05 21:00:00 16.2 13 Noroeste 25 Noroeste 0 -- -- 78
2020-03-05 20:00:00 16 16 Oeste 25 Oeste 0 -- -- 82
2020-03-05 19:00:00 16.6 19 Sudoeste 33 Sudoeste 0 -- -- 82
2020-03-05 18:00:00 17.7 23 Sudoeste 31 Oeste 0 -- -- 71
2020-03-05 17:00:00 18 17 Oeste 29 Oeste 0 -- -- 72
2020-03-05 16:00:00 17.5 18 Oeste 31 Oeste 0 -- -- 72
2020-03-05 15:00:00 17.4 20 Oeste 33 Oeste 0 -- -- 73
2020-03-05 14:00:00 17.1 17 Oeste 29 Oeste 0 -- -- 82
2020-03-05 13:00:00 16.9 17 Oeste 35 Sudoeste 0 -- -- 80
2020-03-05 12:00:00 17.1 18 Oeste 26 Sudoeste 0 -- -- 76
2020-03-05 11:00:00 16.7 9 Sudoeste 16 Sudoeste 0 -- -- 82
2020-03-05 10:00:00 15 11 Oeste 16 Oeste 0 -- -- 91
2020-03-05 09:00:00 14.2 6 Oeste 18 Noroeste 0 -- -- 94
2020-03-05 08:00:00 13.4 11 Noroeste 23 Oeste 0 -- -- 96
2020-03-05 07:00:00 13.3 13 Noroeste 21 Noroeste 0 -- -- 96
2020-03-05 06:00:00 13.6 10 Noroeste 21 Noroeste 0 -- -- 95
2020-03-05 05:00:00 13.8 6 Noroeste 12 Norte 0 -- -- 93
2020-03-05 04:00:00 14.2 10 Noroeste 18 Noroeste 0 -- -- 91
2020-03-05 03:00:00 14.7 8 Noroeste 27 Noroeste 0 -- -- 89
2020-03-05 02:00:00 15.3 13 Noroeste 23 Oeste 0 -- -- 90
2020-03-05 01:00:00 15.5 7 Oeste 19 Oeste 0 -- -- 92
2020-03-05 00:00:00 15.5 12 Oeste 23 Oeste 0 -- -- 91
2020-03-04 23:00:00 15.7 14 Oeste 22 Oeste 0 -- -- 91
2020-03-04 22:00:00 15.7 15 Oeste 24 Oeste 0 -- -- 89
2020-03-04 21:00:00 15.9 15 Oeste 24 Sudoeste 0 -- -- 88
2020-03-04 20:00:00 16.2 16 Oeste 29 Oeste 0 -- -- 86
2020-03-04 19:00:00 17.1 17 Oeste 30 Oeste 0 -- -- 81
2020-03-04 18:00:00 18.2 19 Oeste 28 Oeste 0 -- -- 78
2020-03-04 17:00:00 18.7 21 Oeste 29 Oeste 0 -- -- 77
2020-03-04 16:00:00 18.9 20 Oeste 29 Oeste 0 -- -- 74
2020-03-04 15:00:00 19.2 19 Oeste 28 Sudoeste 0 -- -- 76
2020-03-04 14:00:00 18.9 18 Oeste 29 Oeste 0 -- -- 76
2020-03-04 13:00:00 18.4 17 Oeste 22 Oeste 0 -- -- 80
2020-03-04 12:00:00 17.8 13 Oeste 18 Oeste 0 -- -- 82
2020-03-04 11:00:00 17.1 12 Noroeste 19 Noroeste 0 -- -- 85
2020-03-04 10:00:00 16.2 10 Noroeste 17 Noroeste 0 -- -- 90
2020-03-04 09:00:00 15.1 11 Noroeste 17 Oeste 0 -- -- 94
2020-03-04 08:00:00 14.4 10 Noroeste 15 Noroeste 0 -- -- 95
2020-03-04 07:00:00 14.3 8 Oeste 13 Oeste 0 -- -- 95
2020-03-04 06:00:00 14.2 8 Oeste 14 Oeste 0 -- -- 95
2020-03-04 05:00:00 14.3 8 Noroeste 14 Oeste 0 -- -- 95
2020-03-04 04:00:00 14.7 8 Noroeste 15 Oeste 0 -- -- 93
2020-03-04 03:00:00 14.8 7 Oeste 12 Noroeste 0 -- -- 95
2020-03-04 02:00:00 14.9 5 Oeste 10 Oeste 0 -- -- 97
2020-03-04 01:00:00 15.3 8 Oeste 15 Oeste 0 -- -- 96
2020-03-04 00:00:00 15.9 10 Oeste 19 Oeste 0 -- -- 95
2020-03-03 23:00:00 16.3 10 Sudoeste 18 Sudoeste 0 -- -- 96
2020-03-03 22:00:00 15.8 9 Sudoeste 16 Sudoeste 0 -- -- 95
2020-03-03 21:00:00 16.2 10 Sudoeste 25 Sudoeste 0 -- -- 91
2020-03-03 20:00:00 16.9 13 Sudoeste 21 Sudoeste 0 -- -- 85
2020-03-03 19:00:00 17.1 12 Sudoeste 27 Sudoeste 0 -- -- 83
2020-03-03 18:00:00 18.1 15 Sudoeste 29 Sudoeste 0 -- -- 77
2020-03-03 17:00:00 18.2 17 Sudoeste 33 Sudoeste 0 -- -- 73
2020-03-03 16:00:00 17.8 20 Sudoeste 35 Sudoeste 0 -- -- 72
2020-03-03 15:00:00 17.4 19 Oeste 30 Oeste 0 -- -- 76
2020-03-03 14:00:00 18.1 19 Oeste 27 Sudoeste 0 -- -- 70
2020-03-03 13:00:00 17.5 18 Oeste 29 Oeste 0 -- -- 69
2020-03-03 12:00:00 17.3 15 Oeste 26 Sudoeste 0 -- -- 68
2020-03-03 11:00:00 16.5 10 Oeste 15 Oeste 0 -- -- 69
2020-03-03 10:00:00 14.9 5 Oeste 12 Oeste 0 -- -- 77
2020-03-03 09:00:00 10.8 2 Este 6 Norte 0 -- -- 92
2020-03-03 08:00:00 11.4 2 Este 13 Oeste 0 -- -- 83
2020-03-03 07:00:00 12.7 6 Oeste 15 Noroeste 0 -- -- 83
2020-03-03 06:00:00 12.8 9 Noroeste 14 Oeste 0 -- -- 83
2020-03-03 05:00:00 13 5 Noroeste 16 Noroeste 0 -- -- 80
2020-03-03 04:00:00 13.3 9 Noroeste 17 Noroeste 0 -- -- 80
2020-03-03 03:00:00 13.6 9 Noroeste 24 Noroeste 0 -- -- 77
2020-03-03 02:00:00 14.1 14 Noroeste 24 Oeste 0 -- -- 79
2020-03-03 01:00:00 14.5 15 Noroeste 26 Noroeste 0 -- -- 74
2020-03-03 00:00:00 15.1 15 Noroeste 30 Noroeste 0 -- -- 74
2020-03-02 23:00:00 15.6 19 Noroeste 32 Noroeste 0 -- -- 74
2020-03-02 22:00:00 15.8 14 Oeste 24 Oeste 0 -- -- 79
2020-03-02 21:00:00 16.1 15 Oeste 23 Oeste 0 -- -- 85
2020-03-02 20:00:00 16.1 15 Oeste 30 Sudoeste 0 -- -- 85
2020-03-02 19:00:00 16.9 18 Oeste 33 Oeste 0 -- -- 79
2020-03-02 18:00:00 18 21 Oeste 33 Oeste 0 -- -- 75
2020-03-02 17:00:00 18.8 22 Oeste 34 Oeste 0 -- -- 75
2020-03-02 16:00:00 19 17 Oeste 31 Oeste 0 -- -- 82
2020-03-02 15:00:00 18.8 22 Oeste 41 Sudoeste 0 -- -- 85
2020-03-02 14:00:00 19.2 26 Oeste 41 Sudoeste 0 -- -- 85
2020-03-02 13:00:00 19.2 25 Sudoeste 38 Sudoeste 0 -- -- 84
2020-03-02 12:00:00 18.8 23 Sudoeste 39 Oeste 0 -- -- 86
2020-03-02 11:00:00 18.8 24 Sudoeste 40 Sudoeste 0 -- -- 85
2020-03-02 10:00:00 17.6 23 Sudoeste 38 Sudoeste 0 -- -- 90
2020-03-02 09:00:00 16.8 24 Sudoeste 36 Sudoeste 0 -- -- 93
2020-03-02 08:00:00 16.5 19 Sudoeste 34 Sudoeste 0 -- -- 94
2020-03-02 07:00:00 16.8 20 Sudoeste 35 Sudoeste 0 -- -- 92
2020-03-02 06:00:00 16.8 18 Sudoeste 36 Sudoeste 0 -- -- 92
2020-03-02 05:00:00 16.7 21 Sudoeste 37 Sudoeste 0 -- -- 93
2020-03-02 04:00:00 16.7 19 Sudoeste 34 Sudoeste 0 -- -- 93
2020-03-02 03:00:00 16.6 16 Sudoeste 32 Sur 0 -- -- 93
2020-03-02 02:00:00 16.4 15 Sudoeste 31 Sudoeste 0 -- -- 93
2020-03-02 01:00:00 16.5 15 Sudoeste 30 Sudoeste 0 -- -- 91
2020-03-02 00:00:00 16.1 13 Sudoeste 26 Sudoeste 0 -- -- 94